createdAt,value
2019-06-07T00:00:38.954Z,99.90
2019-06-07T00:03:03.301Z,99.90
2019-06-07T00:05:35.705Z,99.90
2019-06-07T00:08:17.187Z,99.90
2019-06-07T00:10:44.004Z,99.90
2019-06-07T00:13:19.832Z,99.90
2019-06-07T00:15:51.053Z,99.90
2019-06-07T00:18:25.987Z,99.90
2019-06-07T00:20:57.248Z,99.90
2019-06-07T00:23:29.864Z,99.90
2019-06-07T00:26:02.162Z,99.90
2019-06-07T00:28:35.232Z,99.90
2019-06-07T00:31:09.053Z,99.90
2019-06-07T00:33:41.758Z,99.90
2019-06-07T00:36:17.664Z,99.90
2019-06-07T00:38:49.146Z,99.90
2019-06-07T00:41:22.444Z,99.90
2019-06-07T00:43:55.324Z,99.90
2019-06-07T00:46:28.061Z,99.90
2019-06-07T00:49:00.300Z,99.90
2019-06-07T00:51:49.559Z,99.90
2019-06-07T00:54:06.818Z,99.90
2019-06-07T00:56:39.201Z,99.90
2019-06-07T00:59:16.122Z,99.90
2019-06-07T01:01:45.691Z,99.90
2019-06-07T01:04:20.501Z,99.90
2019-06-07T01:06:52.205Z,99.90
2019-06-07T01:09:25.660Z,99.90
2019-06-07T01:11:58.628Z,99.90
2019-06-07T01:14:30.918Z,99.90
2019-06-07T01:17:27.752Z,99.90
2019-06-07T01:19:51.482Z,99.90
2019-06-07T01:22:28.912Z,99.90
2019-06-07T01:24:57.973Z,99.90
2019-06-07T01:27:30.265Z,99.90
2019-06-07T01:30:02.549Z,99.90
2019-06-07T01:32:35.298Z,99.90
2019-06-07T01:35:08.302Z,99.90
2019-06-07T01:37:41.164Z,99.90
2019-06-07T01:40:14.176Z,99.90
2019-06-07T01:42:46.553Z,99.90
2019-06-07T01:45:21.358Z,99.90
2019-06-07T01:47:54.473Z,99.90
2019-06-07T01:50:27.337Z,99.90
2019-06-07T01:52:59.608Z,99.90
2019-06-07T01:55:32.960Z,99.90
2019-06-07T01:58:05.385Z,99.90
2019-06-07T02:00:38.068Z,99.90
2019-06-07T02:03:10.962Z,99.90
2019-06-07T02:05:43.502Z,99.90
2019-06-07T02:08:15.990Z,99.90
2019-06-07T02:10:49.145Z,99.90
2019-06-07T02:13:23.758Z,99.90
2019-06-07T02:15:56.517Z,99.90
2019-06-07T02:18:34.671Z,99.90
2019-06-07T02:21:03.157Z,99.90
2019-06-07T02:23:35.444Z,99.90
2019-06-07T02:26:07.733Z,99.90
2019-06-07T02:28:45.451Z,99.90
2019-06-07T02:31:14.377Z,99.90
2019-06-07T02:33:46.770Z,99.90
2019-06-07T02:36:19.065Z,99.90
2019-06-07T02:38:51.808Z,99.90
2019-06-07T02:41:28.094Z,99.90
2019-06-07T02:43:58.581Z,99.90
2019-06-07T02:46:39.979Z,99.90
2019-06-07T02:49:05.349Z,99.90
2019-06-07T02:51:41.772Z,99.90
2019-06-07T02:54:11.743Z,99.90
2019-06-07T02:56:57.361Z,99.90
2019-06-07T02:59:42.141Z,99.90
2019-06-07T03:01:54.627Z,99.90
2019-06-07T03:04:29.581Z,99.90
2019-06-07T03:07:04.494Z,99.90
2019-06-07T03:09:39.812Z,99.90
2019-06-07T03:12:14.533Z,99.90
2019-06-07T03:14:48.157Z,99.90
2019-06-07T03:17:41.039Z,99.90
2019-06-07T03:20:16.017Z,99.90
2019-06-07T03:22:49.901Z,99.90
2019-06-07T03:25:22.852Z,99.90
2019-06-07T03:27:55.537Z,99.90
2019-06-07T03:30:42.857Z,99.90
2019-06-07T03:33:02.754Z,99.90
2019-06-07T03:35:37.492Z,99.90
2019-06-07T03:38:10.408Z,99.90
2019-06-07T03:40:42.723Z,99.90
2019-06-07T03:43:15.269Z,99.90
2019-06-07T03:45:47.653Z,99.90
2019-06-07T03:48:19.944Z,99.90
2019-06-07T03:51:04.275Z,99.90
2019-06-07T03:53:29.205Z,99.90
2019-06-07T03:56:01.274Z,99.90
2019-06-07T03:58:41.152Z,99.90
2019-06-07T04:01:07.765Z,99.90
2019-06-07T04:03:51.077Z,99.90
2019-06-07T04:06:16.452Z,99.90
2019-06-07T04:08:49.096Z,99.90
2019-06-07T04:11:21.878Z,99.90
2019-06-07T04:13:54.164Z,99.90
2019-06-07T04:16:28.822Z,99.90
2019-06-07T04:19:01.030Z,99.90
2019-06-07T04:21:35.119Z,99.90
2019-06-07T04:24:07.680Z,99.90
2019-06-07T04:26:43.751Z,99.90
2019-06-07T04:31:48.843Z,99.90
2019-06-07T04:34:21.421Z,99.90
2019-06-07T04:36:58.926Z,99.90
2019-06-07T04:39:33.511Z,99.90
2019-06-07T04:42:05.325Z,99.90
2019-06-07T04:44:42.724Z,99.90
2019-06-07T04:47:16.783Z,99.90
2019-06-07T04:49:51.972Z,99.90
2019-06-07T04:52:24.368Z,99.90
2019-06-07T04:54:57.155Z,99.90
2019-06-07T04:57:31.859Z,99.90
2019-06-07T05:00:33.727Z,99.90
2019-06-07T05:02:40.283Z,99.90
2019-06-07T05:05:12.618Z,99.90
2019-06-07T05:07:46.245Z,99.90
2019-06-07T05:10:18.815Z,99.90
2019-06-07T05:12:51.684Z,99.90
2019-06-07T05:15:24.924Z,99.90
2019-06-07T05:17:57.299Z,99.90
2019-06-07T05:20:29.697Z,99.90
2019-06-07T05:23:02.925Z,99.90
2019-06-07T05:25:36.465Z,99.90
2019-06-07T05:28:09.808Z,99.90
2019-06-07T05:31:03.830Z,99.90
2019-06-07T05:33:18.098Z,99.90
2019-06-07T05:35:50.490Z,99.90
2019-06-07T05:38:23.241Z,99.90
2019-06-07T05:40:55.525Z,99.90
2019-06-07T05:43:30.044Z,99.90
2019-06-07T05:46:02.784Z,99.90
2019-06-07T05:48:36.609Z,99.90
2019-06-07T05:51:09.856Z,99.90
2019-06-07T05:53:45.695Z,99.90
2019-06-07T05:56:16.851Z,99.90
2019-06-07T05:58:49.990Z,99.90
2019-06-07T06:01:45.987Z,99.90
2019-06-07T06:03:56.160Z,99.90
2019-06-07T06:06:28.444Z,99.90
2019-06-07T06:09:13.197Z,99.90
2019-06-07T06:11:49.480Z,99.90
2019-06-07T06:14:09.355Z,99.90
2019-06-07T06:16:44.460Z,99.90
2019-06-07T06:19:16.050Z,99.90
2019-06-07T06:21:49.105Z,99.90
2019-06-07T06:24:21.947Z,99.90
2019-06-07T06:27:05.120Z,99.90
2019-06-07T06:29:28.967Z,99.90
2019-06-07T06:32:40.390Z,99.90
2019-06-07T06:34:39.436Z,99.90
2019-06-07T06:37:10.012Z,99.90
2019-06-07T06:39:46.596Z,99.90
2019-06-07T06:42:17.201Z,99.90
2019-06-07T06:44:53.827Z,99.90
2019-06-07T06:47:23.819Z,99.90
2019-06-07T06:49:56.440Z,99.90
2019-06-07T06:52:28.728Z,99.90
2019-06-07T06:55:01.571Z,99.90
2019-06-07T06:57:33.946Z,99.90
2019-06-07T07:00:08.428Z,99.90
2019-06-07T07:03:21.159Z,99.90
2019-06-07T07:05:16.760Z,99.90
2019-06-07T07:07:52.636Z,99.90
2019-06-07T07:10:40.655Z,99.90
2019-06-07T07:13:13.416Z,99.90
2019-06-07T07:15:50.096Z,99.90
2019-06-07T07:18:19.818Z,99.90
2019-06-07T07:20:57.073Z,99.90
2019-06-07T07:23:26.560Z,99.90
2019-06-07T07:26:00.096Z,99.90
2019-06-07T07:28:33.085Z,99.90
2019-06-07T07:31:05.472Z,99.90
2019-06-07T07:34:24.652Z,99.90
2019-06-07T07:36:35.295Z,99.90
2019-06-07T07:38:51.845Z,99.90
2019-06-07T07:41:20.012Z,99.90
2019-06-07T07:44:05.206Z,99.90
2019-06-07T07:46:29.434Z,99.90
2019-06-07T07:49:03.425Z,99.90
2019-06-07T07:51:35.825Z,99.90
2019-06-07T07:54:10.873Z,99.90
2019-06-07T07:56:42.486Z,99.90
2019-06-07T07:59:14.778Z,99.90
2019-06-07T08:01:48.588Z,99.90
2019-06-07T08:04:39.704Z,99.90
2019-06-07T08:06:56.181Z,99.90
2019-06-07T08:09:29.282Z,99.90
2019-06-07T08:12:02.722Z,99.90
2019-06-07T08:14:35.062Z,99.90
2019-06-07T08:17:07.740Z,99.90
2019-06-07T08:19:40.014Z,99.90
2019-06-07T08:22:12.306Z,99.90
2019-06-07T08:24:45.443Z,99.90
2019-06-07T08:27:26.470Z,99.90
2019-06-07T08:30:08.883Z,99.90
2019-06-07T08:32:26.559Z,99.90
2019-06-07T08:35:03.378Z,99.90
2019-06-07T08:38:14.196Z,99.90
2019-06-07T08:40:08.793Z,99.90
2019-06-07T08:42:59.945Z,99.90
2019-06-07T08:45:16.545Z,99.90
2019-06-07T08:47:56.506Z,99.90
2019-06-07T08:50:24.885Z,99.90
2019-06-07T08:53:05.125Z,99.90
2019-06-07T08:55:31.734Z,99.90
2019-06-07T08:58:08.546Z,99.90
2019-06-07T09:00:46.107Z,99.90
2019-06-07T09:03:13.036Z,99.90
2019-06-07T09:05:46.458Z,99.90
2019-06-07T09:08:29.889Z,99.90
2019-06-07T09:10:56.401Z,99.90
2019-06-07T09:13:28.482Z,99.90
2019-06-07T09:16:06.014Z,99.90
2019-06-07T09:18:43.129Z,99.90
2019-06-07T09:21:09.800Z,99.90
2019-06-07T09:23:43.445Z,99.90
2019-06-07T09:26:18.753Z,99.90
2019-06-07T09:28:50.787Z,99.90
2019-06-07T09:31:23.260Z,99.90
2019-06-07T09:33:57.822Z,99.90
2019-06-07T09:36:30.031Z,99.90
2019-06-07T09:39:08.294Z,99.90
2019-06-07T09:41:47.537Z,99.90
2019-06-07T09:44:23.655Z,99.60
2019-06-07T09:46:47.134Z,99.70
2019-06-07T09:49:31.440Z,99.80
2019-06-07T09:51:53.675Z,99.70
2019-06-07T09:55:03.957Z,98.90
2019-06-07T09:57:04.075Z,98.60
2019-06-07T09:59:34.628Z,97.20
2019-06-07T10:02:13.259Z,96.90
2019-06-07T10:04:40.997Z,97.00
2019-06-07T10:07:30.670Z,97.20
2019-06-07T10:12:23.346Z,96.20
2019-06-07T10:14:56.087Z,98.00
2019-06-07T10:17:28.420Z,97.60
2019-06-07T10:20:02.528Z,96.50
2019-06-07T10:22:35.276Z,95.10
2019-06-07T10:25:08.665Z,96.50
2019-06-07T10:27:41.391Z,95.50
2019-06-07T10:30:13.922Z,96.20
2019-06-07T10:32:46.200Z,96.20
2019-06-07T10:35:19.486Z,96.20
2019-06-07T10:37:52.827Z,96.50
2019-06-07T10:40:27.708Z,94.40
2019-06-07T10:43:01.219Z,94.00
2019-06-07T10:45:34.593Z,94.60
2019-06-07T10:48:07.674Z,94.10
2019-06-07T10:50:40.456Z,95.10
2019-06-07T10:53:13.766Z,95.80
2019-06-07T10:55:46.155Z,94.80
2019-06-07T10:58:18.535Z,93.80
2019-06-07T11:00:51.134Z,93.80
2019-06-07T11:03:24.449Z,94.80
2019-06-07T11:05:56.727Z,94.50
2019-06-07T11:08:29.007Z,94.00
2019-06-07T11:11:03.811Z,95.20
2019-06-07T11:13:36.340Z,95.00
2019-06-07T11:16:09.194Z,95.00
2019-06-07T11:18:41.940Z,93.90
2019-06-07T11:21:14.990Z,92.70
2019-06-07T11:23:47.611Z,94.00
2019-06-07T11:26:20.350Z,94.60
2019-06-07T11:28:52.636Z,92.30
2019-06-07T11:31:25.375Z,92.70
2019-06-07T11:33:57.664Z,93.90
2019-06-07T11:36:30.025Z,93.30
2019-06-07T11:39:02.339Z,91.70
2019-06-07T11:41:35.675Z,91.30
2019-06-07T11:44:08.795Z,91.40
2019-06-07T11:46:41.107Z,92.20
2019-06-07T11:49:19.935Z,91.90
2019-06-07T11:51:47.774Z,91.80
2019-06-07T11:54:20.591Z,92.20
2019-06-07T11:56:53.513Z,91.50
2019-06-07T11:59:26.603Z,91.50
2019-06-07T12:01:58.912Z,91.60
2019-06-07T12:04:35.005Z,91.10
2019-06-07T12:07:06.078Z,90.70
2019-06-07T12:09:55.231Z,88.20
2019-06-07T12:12:14.473Z,91.20
2019-06-07T12:14:47.324Z,90.30
2019-06-07T12:17:20.396Z,90.80
2019-06-07T12:19:52.686Z,90.20
2019-06-07T12:22:25.439Z,89.10
2019-06-07T12:24:58.164Z,88.00
2019-06-07T12:27:31.377Z,86.40
2019-06-07T12:30:09.758Z,89.10
2019-06-07T12:32:37.972Z,86.30
2019-06-07T12:35:11.544Z,86.00
2019-06-07T12:37:44.998Z,86.80
2019-06-07T12:40:27.722Z,89.40
2019-06-07T12:42:52.527Z,87.10
2019-06-07T12:45:43.871Z,85.40
2019-06-07T12:47:59.629Z,86.00
2019-06-07T12:50:42.638Z,86.10
2019-06-07T12:53:06.913Z,84.90
2019-06-07T12:55:40.570Z,85.60
2019-06-07T12:58:13.858Z,84.90
2019-06-07T13:00:46.122Z,85.10
2019-06-07T13:03:18.517Z,80.90
2019-06-07T13:05:50.887Z,82.10
2019-06-07T13:08:23.906Z,78.40
2019-06-07T13:11:13.665Z,81.70
2019-06-07T13:13:31.069Z,78.20
2019-06-07T13:16:03.789Z,78.20
2019-06-07T13:18:36.241Z,78.30
2019-06-07T13:21:08.663Z,77.60
2019-06-07T13:23:44.318Z,79.00
2019-06-07T13:26:18.502Z,76.00
2019-06-07T13:28:51.691Z,78.50
2019-06-07T13:31:25.280Z,82.50
2019-06-07T13:33:58.106Z,77.20
2019-06-07T13:36:30.624Z,74.30
2019-06-07T13:39:03.556Z,74.20
2019-06-07T13:41:42.850Z,74.60
2019-06-07T13:44:10.525Z,75.30
2019-06-07T13:46:44.472Z,73.80
2019-06-07T13:49:17.374Z,73.70
2019-06-07T13:51:50.169Z,79.10
2019-06-07T13:54:22.791Z,74.80
2019-06-07T13:57:02.157Z,75.00
2019-06-07T13:59:29.855Z,73.90
2019-06-07T14:02:02.491Z,74.50
2019-06-07T14:04:35.117Z,69.90
2019-06-07T14:07:07.516Z,68.30
2019-06-07T14:09:41.195Z,68.50
2019-06-07T14:12:14.143Z,72.70
2019-06-07T14:14:46.441Z,71.70
2019-06-07T14:17:18.728Z,69.30
2019-06-07T14:19:51.020Z,71.40
2019-06-07T14:22:24.730Z,71.50
2019-06-07T14:24:57.122Z,70.70
2019-06-07T14:27:31.772Z,70.00
2019-06-07T14:30:05.510Z,70.70
2019-06-07T14:32:38.805Z,74.90
2019-06-07T14:35:12.149Z,71.40
2019-06-07T14:37:44.434Z,74.90
2019-06-07T14:40:17.472Z,72.70
2019-06-07T14:42:50.539Z,68.90
2019-06-07T14:45:23.658Z,70.70
2019-06-07T14:47:55.944Z,72.30
2019-06-07T14:50:28.707Z,69.80
2019-06-07T14:53:02.512Z,70.30
2019-06-07T14:55:35.167Z,70.30
2019-06-07T14:58:07.599Z,70.70
2019-06-07T15:00:43.507Z,67.10
2019-06-07T15:03:16.354Z,68.80
2019-06-07T15:05:48.644Z,69.00
2019-06-07T15:08:20.925Z,68.90
2019-06-07T15:10:54.002Z,68.60
2019-06-07T15:13:27.411Z,68.00
2019-06-07T15:16:00.365Z,67.30
2019-06-07T15:18:33.900Z,68.30
2019-06-07T15:21:07.061Z,68.90
2019-06-07T15:23:39.474Z,67.90
2019-06-07T15:26:11.806Z,69.60
2019-06-07T15:28:44.977Z,66.70
2019-06-07T15:31:17.258Z,68.40
2019-06-07T15:33:50.322Z,71.00
2019-06-07T15:36:22.936Z,69.20
2019-06-07T15:38:55.232Z,68.90
2019-06-07T15:41:28.943Z,67.80
2019-06-07T15:44:01.310Z,70.30
2019-06-07T15:46:35.661Z,70.30
2019-06-07T15:49:08.547Z,70.70
2019-06-07T15:51:41.615Z,71.00
2019-06-07T15:54:13.901Z,72.50
2019-06-07T15:56:46.642Z,68.80
2019-06-07T15:59:19.383Z,71.90
2019-06-07T16:01:52.230Z,71.50
2019-06-07T16:04:25.298Z,71.70
2019-06-07T16:06:57.582Z,71.30
2019-06-07T16:09:29.881Z,70.80
2019-06-07T16:12:02.620Z,72.10
2019-06-07T16:14:36.843Z,70.90
2019-06-07T16:17:09.604Z,71.30
2019-06-07T16:19:45.972Z,68.30
2019-06-07T16:22:16.584Z,66.70
2019-06-07T16:24:49.247Z,68.00
2019-06-07T16:27:21.891Z,69.60
2019-06-07T16:29:54.267Z,68.10
2019-06-07T16:32:26.575Z,70.80
2019-06-07T16:34:59.179Z,66.80
2019-06-07T16:37:31.927Z,67.30
2019-06-07T16:40:05.272Z,68.00
2019-06-07T16:42:38.456Z,68.90
2019-06-07T16:45:12.459Z,68.90
2019-06-07T16:47:47.580Z,68.60
2019-06-07T16:50:19.629Z,68.10
2019-06-07T16:52:52.372Z,68.60
2019-06-07T16:55:24.979Z,69.60
2019-06-07T16:57:57.262Z,70.60
2019-06-07T17:00:30.189Z,71.00
2019-06-07T17:03:02.982Z,70.10
2019-06-07T17:05:35.663Z,68.30
2019-06-07T17:08:08.618Z,68.80
2019-06-07T17:10:42.554Z,71.00
2019-06-07T17:13:15.755Z,71.20
2019-06-07T17:15:48.998Z,70.40
2019-06-07T17:18:21.688Z,70.70
2019-06-07T17:20:54.476Z,71.50
2019-06-07T17:23:27.439Z,73.40
2019-06-07T17:26:00.757Z,75.20
2019-06-07T17:28:33.051Z,75.20
2019-06-07T17:31:05.995Z,76.40
2019-06-07T17:33:39.805Z,76.00
2019-06-07T17:36:12.898Z,76.50
2019-06-07T17:38:46.457Z,77.50
2019-06-07T17:41:19.223Z,78.50
2019-06-07T17:43:58.455Z,77.50
2019-06-07T17:46:25.741Z,78.40
2019-06-07T17:48:58.491Z,79.10
2019-06-07T17:51:31.113Z,78.10
2019-06-07T17:54:03.857Z,77.70
2019-06-07T17:56:36.943Z,77.10
2019-06-07T17:59:09.701Z,77.60
2019-06-07T18:02:02.418Z,77.10
2019-06-07T18:04:18.326Z,78.40
2019-06-07T18:06:53.546Z,78.90
2019-06-07T18:09:27.787Z,79.70
2019-06-07T18:12:00.532Z,79.30
2019-06-07T18:14:33.253Z,78.80
2019-06-07T18:17:06.215Z,78.80
2019-06-07T18:19:38.548Z,79.70
2019-06-07T18:22:10.805Z,79.60
2019-06-07T18:24:43.474Z,80.20
2019-06-07T18:27:15.755Z,80.40
2019-06-07T18:29:49.103Z,81.30
2019-06-07T18:32:22.274Z,81.00
2019-06-07T18:34:55.490Z,81.20
2019-06-07T18:37:27.774Z,82.60
2019-06-07T18:40:01.193Z,81.30
2019-06-07T18:42:33.808Z,81.40
2019-06-07T18:45:06.989Z,82.00
2019-06-07T18:47:39.267Z,81.10
2019-06-07T18:50:12.217Z,81.20
